createdAt,value
2018-05-26T00:01:42.318Z,97933.38
2018-05-26T00:04:09.971Z,97927.00
2018-05-26T00:06:37.422Z,97935.58
2018-05-26T00:09:04.892Z,97932.69
2018-05-26T00:11:32.368Z,97935.80
2018-05-26T00:13:59.811Z,97940.30
2018-05-26T00:16:27.577Z,97940.99
2018-05-26T00:18:55.049Z,97940.30
2018-05-26T00:21:23.075Z,97935.81
2018-05-26T00:23:50.542Z,97935.30
2018-05-26T00:26:17.993Z,97940.52
2018-05-26T00:28:45.478Z,97936.94
2018-05-26T00:31:12.907Z,97937.94
2018-05-26T00:33:40.370Z,97941.06
2018-05-26T00:36:07.998Z,97942.11
2018-05-26T00:38:35.467Z,97937.31
2018-05-26T00:41:02.914Z,97937.19
2018-05-26T00:43:30.413Z,97932.92
2018-05-26T00:45:57.892Z,97936.00
2018-05-26T00:48:25.332Z,97934.31
2018-05-26T00:50:52.810Z,97936.61
2018-05-26T00:53:21.313Z,97934.62
2018-05-26T00:55:48.768Z,97940.33
2018-05-26T00:58:16.234Z,97947.82
2018-05-26T01:00:43.715Z,97952.00
2018-05-26T01:03:12.076Z,97947.69
2018-05-26T01:05:39.536Z,97940.38
2018-05-26T01:08:06.983Z,97948.72
2018-05-26T01:10:34.843Z,97940.78
2018-05-26T01:13:06.382Z,97941.28
2018-05-26T01:15:33.835Z,97943.83
2018-05-26T01:18:01.503Z,97945.06
2018-05-26T01:20:29.017Z,97941.61
2018-05-26T01:22:56.487Z,97936.63
2018-05-26T01:25:23.965Z,97941.84
2018-05-26T01:27:52.249Z,97936.00
2018-05-26T01:30:19.706Z,97939.28
2018-05-26T01:32:47.278Z,97932.38
2018-05-26T01:35:14.725Z,97931.11
2018-05-26T01:37:42.182Z,97934.44
2018-05-26T01:40:10.543Z,97941.17
2018-05-26T01:42:38.461Z,97930.19
2018-05-26T01:45:05.946Z,97926.50
2018-05-26T01:47:33.383Z,97925.70
2018-05-26T01:50:00.882Z,97919.63
2018-05-26T01:52:28.315Z,97930.91
2018-05-26T01:54:55.904Z,97929.16
2018-05-26T01:57:23.352Z,97934.46
2018-05-26T01:59:50.819Z,97935.36
2018-05-26T02:02:18.303Z,97940.31
2018-05-26T02:04:45.752Z,97935.13
2018-05-26T02:07:13.245Z,97930.34
2018-05-26T02:09:40.746Z,97925.94
2018-05-26T02:12:08.219Z,97923.61
2018-05-26T02:14:35.700Z,97921.85
2018-05-26T02:17:03.153Z,97924.50
2018-05-26T02:19:30.628Z,97924.27
2018-05-26T02:21:58.184Z,97927.73
2018-05-26T02:24:25.609Z,97925.94
2018-05-26T02:26:53.059Z,97928.77
2018-05-26T02:29:20.536Z,97928.27
2018-05-26T02:31:47.997Z,97934.69
2018-05-26T02:34:15.571Z,97937.34
2018-05-26T02:36:43.701Z,97933.97
2018-05-26T02:39:11.281Z,97935.25
2018-05-26T02:41:40.357Z,97933.23
2018-05-26T02:44:07.827Z,97941.72
2018-05-26T02:46:35.291Z,97935.32
2018-05-26T02:49:02.822Z,97936.53
2018-05-26T02:51:30.260Z,97932.38
2018-05-26T02:53:57.726Z,97939.27
2018-05-26T02:56:25.858Z,97929.16
2018-05-26T02:58:53.340Z,97940.06
2018-05-26T03:01:20.816Z,97936.31
2018-05-26T03:03:47.917Z,97939.03
2018-05-26T03:06:21.089Z,97935.80
2018-05-26T03:08:54.272Z,97942.99
2018-05-26T03:11:27.762Z,97939.25
2018-05-26T03:14:00.886Z,97946.36
2018-05-26T03:16:34.688Z,97942.14
2018-05-26T03:19:02.132Z,97947.42
2018-05-26T03:21:29.592Z,97944.72
2018-05-26T03:23:57.036Z,97946.75
2018-05-26T03:26:24.515Z,97947.56
2018-05-26T03:28:52.099Z,97948.36
2018-05-26T03:31:19.548Z,97950.53
2018-05-26T03:33:47.002Z,97945.50
2018-05-26T03:36:14.476Z,97955.17
2018-05-26T03:38:41.965Z,97959.95
2018-05-26T03:41:09.547Z,97965.31
2018-05-26T03:43:36.990Z,97966.53
2018-05-26T03:46:04.453Z,97964.41
2018-05-26T03:48:32.224Z,97965.61
2018-05-26T03:50:59.691Z,97962.42
2018-05-26T03:53:27.351Z,97961.62
2018-05-26T03:56:06.854Z,97956.27
2018-05-26T03:58:46.071Z,97957.78
2018-05-26T04:01:13.539Z,97966.88
2018-05-26T04:03:41.020Z,97968.36
2018-05-26T04:06:08.671Z,97969.05
2018-05-26T04:08:36.247Z,97972.28
2018-05-26T04:11:03.697Z,97974.24
2018-05-26T04:13:31.168Z,97968.80
2018-05-26T04:15:58.895Z,97971.80
2018-05-26T04:18:26.383Z,97969.95
2018-05-26T04:20:53.862Z,97970.27
2018-05-26T04:23:21.355Z,97970.91
2018-05-26T04:25:50.400Z,97970.43
2018-05-26T04:28:19.953Z,97975.30
2018-05-26T04:30:47.387Z,97987.00
2018-05-26T04:33:15.940Z,97990.35
2018-05-26T04:35:43.886Z,97988.83
2018-05-26T04:38:11.674Z,97983.14
2018-05-26T04:40:39.152Z,97988.13
2018-05-26T04:43:07.320Z,97988.12
2018-05-26T04:45:35.781Z,97993.86
2018-05-26T04:48:03.411Z,97995.29
2018-05-26T04:50:32.447Z,98002.36
2018-05-26T04:52:59.996Z,98005.38
2018-05-26T04:55:27.560Z,98001.30
2018-05-26T04:57:55.038Z,98002.56
2018-05-26T05:00:24.134Z,98007.55
2018-05-26T05:02:51.615Z,98005.90
2018-05-26T05:05:19.080Z,98007.48
2018-05-26T05:07:46.564Z,98005.06
2018-05-26T05:10:14.818Z,98012.58
2018-05-26T05:12:42.529Z,98015.24
2018-05-26T05:15:10.013Z,98021.06
2018-05-26T05:17:38.153Z,98025.92
2018-05-26T05:20:05.607Z,98025.34
2018-05-26T05:22:33.093Z,98032.02
2018-05-26T05:25:00.571Z,98030.17
2018-05-26T05:27:28.112Z,98034.86
2018-05-26T05:29:55.573Z,98031.66
2018-05-26T05:32:23.955Z,98026.84
2018-05-26T05:34:51.415Z,98030.52
2018-05-26T05:37:18.857Z,98029.30
2018-05-26T05:39:46.414Z,98024.81
2018-05-26T05:42:13.896Z,98022.39
2018-05-26T05:44:41.396Z,98025.06
2018-05-26T05:47:08.850Z,98028.72
2018-05-26T05:49:37.286Z,98035.50
2018-05-26T05:52:04.808Z,98033.08
2018-05-26T05:54:32.378Z,98041.42
2018-05-26T05:56:59.859Z,98035.55
2018-05-26T05:59:27.292Z,98036.61
2018-05-26T06:01:54.817Z,98032.36
2018-05-26T06:04:22.400Z,98038.91
2018-05-26T06:06:49.892Z,98037.91
2018-05-26T06:09:17.356Z,98037.42
2018-05-26T06:11:44.861Z,98040.14
2018-05-26T06:14:12.324Z,98039.60
2018-05-26T06:16:39.881Z,98042.96
2018-05-26T06:19:08.554Z,98043.66
2018-05-26T06:21:36.532Z,98041.59
2018-05-26T06:24:04.036Z,98046.53
2018-05-26T06:26:31.550Z,98044.89
2018-05-26T06:28:59.099Z,98050.17
2018-05-26T06:31:26.663Z,98052.50
2018-05-26T06:33:54.123Z,98047.75
2018-05-26T06:36:21.599Z,98046.20
2018-05-26T06:38:49.071Z,98048.07
2018-05-26T06:41:16.556Z,98046.25
2018-05-26T06:43:44.019Z,98049.61
2018-05-26T06:46:12.149Z,98048.16
2018-05-26T06:48:39.631Z,98040.69
2018-05-26T06:51:07.724Z,98045.57
2018-05-26T06:53:57.692Z,98048.88
2018-05-26T06:56:25.863Z,98047.20
2018-05-26T06:58:53.337Z,98043.80
2018-05-26T07:01:20.821Z,98037.08
2018-05-26T07:03:50.121Z,98031.98
2018-05-26T07:06:19.203Z,98033.92
2018-05-26T07:08:46.796Z,98036.25
2018-05-26T07:11:36.649Z,98029.55
2018-05-26T07:16:46.514Z,98036.42
2018-05-26T07:21:49.015Z,98037.73
2018-05-26T07:24:16.525Z,98034.68
2018-05-26T07:32:21.280Z,98030.73
2018-05-26T07:34:48.758Z,98027.24
2018-05-26T07:37:17.807Z,97945.10
2018-05-26T07:54:23.298Z,98030.47
2018-05-26T07:59:44.389Z,98036.44
2018-05-26T08:02:12.763Z,98037.81
2018-05-26T08:04:40.214Z,98035.72
2018-05-26T08:07:07.681Z,98037.52
2018-05-26T08:09:36.101Z,98043.95
2018-05-26T08:12:04.398Z,98045.22
2018-05-26T08:14:46.320Z,98048.83
2018-05-26T08:26:30.945Z,98051.92
2018-05-26T08:29:00.783Z,98054.73
2018-05-26T08:31:28.234Z,98054.52
2018-05-26T08:33:55.708Z,98051.84
2018-05-26T08:36:23.173Z,98052.30
2018-05-26T08:38:51.624Z,98054.34
2018-05-26T08:41:19.080Z,98050.27
2018-05-26T08:43:47.171Z,98051.47
2018-05-26T08:46:14.619Z,98057.02
2018-05-26T08:48:42.096Z,98055.25
2018-05-26T08:51:09.550Z,98059.70
2018-05-26T08:53:37.095Z,98061.09
2018-05-26T08:56:05.504Z,98065.83
2018-05-26T08:58:32.971Z,98060.60
2018-05-26T09:01:00.436Z,98063.67
2018-05-26T09:03:27.939Z,98062.76
2018-05-26T09:05:55.673Z,98061.41
2018-05-26T09:11:40.353Z,98065.34
2018-05-26T09:14:41.421Z,98066.08
2018-05-26T09:17:10.743Z,98056.44
2018-05-26T09:26:17.171Z,98055.25
2018-05-26T09:28:52.370Z,98054.45
2018-05-26T09:31:22.176Z,98051.03
2018-05-26T09:36:40.220Z,98058.25
2018-05-26T09:39:19.918Z,98063.61
2018-05-26T09:41:49.099Z,98059.89
2018-05-26T09:44:18.707Z,98058.58
2018-05-26T09:47:12.918Z,98063.02
2018-05-26T09:49:40.358Z,98054.05
2018-05-26T09:52:07.929Z,98056.09
2018-05-26T09:54:35.357Z,98056.95
2018-05-26T09:57:03.641Z,98054.98
2018-05-26T09:59:31.075Z,98054.62
2018-05-26T10:01:58.549Z,98065.69
2018-05-26T10:04:26.115Z,98055.84
2018-05-26T10:06:53.610Z,98055.06
2018-05-26T10:09:21.109Z,98051.52
2018-05-26T10:11:49.736Z,98055.84
2018-05-26T10:14:17.299Z,98052.08
2018-05-26T10:16:44.834Z,98050.48
2018-05-26T10:19:13.092Z,98058.01
2018-05-26T10:21:40.535Z,98057.61
2018-05-26T10:24:08.718Z,98054.06
2018-05-26T10:26:36.177Z,98055.22
2018-05-26T10:29:03.662Z,98047.73
2018-05-26T10:31:31.118Z,98056.00
2018-05-26T10:33:58.695Z,98051.07
2018-05-26T10:36:26.690Z,98052.27
2018-05-26T10:38:54.185Z,98056.62
2018-05-26T10:50:50.336Z,98052.48
2018-05-26T10:53:17.772Z,98055.63
2018-05-26T10:55:45.230Z,98054.84
2018-05-26T10:58:13.210Z,98058.02
2018-05-26T11:00:40.738Z,98065.70
2018-05-26T11:18:10.140Z,98061.38
2018-05-26T11:33:21.246Z,98060.59
2018-05-26T11:38:41.159Z,98054.27
2018-05-26T11:41:26.992Z,98057.99
2018-05-26T11:43:54.946Z,98055.25
2018-05-26T11:49:24.187Z,98054.86
2018-05-26T11:51:51.845Z,98055.26
2018-05-26T11:54:19.306Z,98056.25
2018-05-26T11:56:47.753Z,98051.71
2018-05-26T11:59:15.265Z,98056.63
2018-05-26T12:01:42.696Z,98059.59
2018-05-26T12:06:57.072Z,98048.53
2018-05-26T12:09:24.727Z,98037.03
2018-05-26T12:11:52.160Z,98039.20
2018-05-26T12:14:19.694Z,98035.81
2018-05-26T12:16:47.486Z,98027.86
2018-05-26T12:19:15.028Z,98027.38
2018-05-26T12:21:42.497Z,98031.11
2018-05-26T12:24:10.391Z,98033.97
2018-05-26T12:26:37.834Z,98031.47
2018-05-26T12:29:05.348Z,98038.84
2018-05-26T12:31:32.869Z,98028.18
2018-05-26T12:34:00.336Z,98021.03
2018-05-26T12:36:27.798Z,98020.60
2018-05-26T12:38:55.534Z,98022.30
2018-05-26T12:41:23.019Z,98021.14
2018-05-26T12:43:50.473Z,98024.80
2018-05-26T12:46:18.427Z,98023.22
2018-05-26T12:48:45.910Z,98024.59
2018-05-26T12:51:13.585Z,98019.20
2018-05-26T12:53:41.635Z,98023.38
2018-05-26T12:56:09.199Z,98015.98
2018-05-26T12:58:36.672Z,98009.37
2018-05-26T13:01:05.847Z,98011.60
2018-05-26T13:03:33.299Z,98010.48
2018-05-26T13:15:53.649Z,97994.16
2018-05-26T13:18:42.167Z,97994.97
2018-05-26T13:21:32.910Z,98003.41
2018-05-26T13:24:00.346Z,97997.77
2018-05-26T13:26:30.339Z,97996.95
2018-05-26T13:49:39.547Z,98005.41
2018-05-26T13:52:07.060Z,98001.44
2018-05-26T13:54:34.540Z,97993.67
2018-05-26T13:57:33.236Z,97998.75
2018-05-26T14:06:03.139Z,97999.28
2018-05-26T14:08:37.924Z,98001.09
2018-05-26T14:13:50.272Z,97988.42
2018-05-26T14:16:17.722Z,97990.58
2018-05-26T14:18:46.590Z,97986.48
2018-05-26T14:21:31.395Z,97987.38
2018-05-26T14:23:58.877Z,97988.33
2018-05-26T14:26:26.337Z,97993.02
2018-05-26T14:28:54.320Z,97982.25
2018-05-26T14:31:21.817Z,97976.33
2018-05-26T14:33:49.275Z,97984.30
2018-05-26T14:36:16.748Z,97981.32
2018-05-26T14:38:44.171Z,97983.75
2018-05-26T14:41:11.625Z,97987.69
2018-05-26T14:43:39.066Z,97989.77
2018-05-26T14:46:08.183Z,97983.94
2018-05-26T14:48:35.632Z,97987.64
2018-05-26T14:51:03.085Z,97990.27
2018-05-26T14:53:30.535Z,98001.54
2018-05-26T14:55:58.041Z,97997.33
2018-05-26T14:58:25.601Z,97998.11
2018-05-26T15:00:53.063Z,98005.20
2018-05-26T15:03:20.510Z,98001.95
2018-05-26T15:05:47.966Z,98000.52
2018-05-26T15:08:15.408Z,98006.70
2018-05-26T15:10:42.862Z,98001.43
2018-05-26T15:13:10.668Z,98000.41
2018-05-26T15:15:38.046Z,97995.66
2018-05-26T15:18:05.503Z,97996.73
2018-05-26T15:20:33.059Z,97992.39
2018-05-26T15:23:00.587Z,97992.48
2018-05-26T15:25:28.138Z,97987.16
2018-05-26T15:27:55.685Z,97988.33
2018-05-26T15:30:23.137Z,97986.14
2018-05-26T15:32:50.617Z,97982.42
2018-05-26T15:35:18.137Z,97984.83
2018-05-26T15:37:45.586Z,97984.83
2018-05-26T15:40:13.068Z,97988.34
2018-05-26T15:42:40.546Z,97988.77
2018-05-26T15:45:08.843Z,97986.81
2018-05-26T15:47:36.384Z,97983.78
2018-05-26T15:50:04.714Z,97982.46
2018-05-26T15:52:32.191Z,97971.03
2018-05-26T15:54:59.660Z,97971.25
2018-05-26T15:57:27.221Z,97966.44
2018-05-26T15:59:54.720Z,97968.44
2018-05-26T16:02:22.191Z,97955.48
2018-05-26T16:04:49.646Z,97949.18
2018-05-26T16:07:17.109Z,97952.84
2018-05-26T16:09:44.549Z,97952.45
2018-05-26T16:12:12.114Z,97955.42
2018-05-26T16:14:45.937Z,97950.66
2018-05-26T16:17:13.430Z,97943.95
2018-05-26T16:29:29.463Z,97932.18
2018-05-26T16:34:56.219Z,97937.52
2018-05-26T16:40:33.807Z,97945.73
2018-05-26T16:43:09.773Z,97951.22
2018-05-26T16:45:37.821Z,97948.84
2018-05-26T16:48:09.632Z,97950.03
2018-05-26T16:50:37.238Z,97951.21
2018-05-26T16:53:04.909Z,97942.71
2018-05-26T16:55:32.453Z,97950.77
2018-05-26T16:58:00.715Z,97952.32
2018-05-26T17:00:45.113Z,97957.99
2018-05-26T17:03:12.647Z,97958.17
2018-05-26T17:05:40.756Z,97967.95
2018-05-26T17:11:00.330Z,97959.52
2018-05-26T17:13:34.968Z,97955.91
2018-05-26T17:19:16.567Z,97972.02
2018-05-26T17:24:49.099Z,97970.84
2018-05-26T17:33:27.837Z,97978.75
2018-05-26T17:41:45.564Z,97982.75
2018-05-26T18:27:37.355Z,98013.37
2018-05-26T18:30:04.989Z,98011.00
2018-05-26T18:32:32.969Z,98012.98
2018-05-26T18:35:00.791Z,98013.83
2018-05-26T18:37:28.508Z,98016.98
2018-05-26T18:39:56.154Z,98019.88
2018-05-26T18:42:24.434Z,98019.15
2018-05-26T18:44:53.324Z,98019.85
2018-05-26T18:47:20.969Z,98025.38
2018-05-26T18:49:48.634Z,98025.56
2018-05-26T18:52:16.748Z,98029.30
2018-05-26T18:54:45.485Z,98032.05
2018-05-26T18:57:13.434Z,98040.12
2018-05-26T18:59:41.652Z,98033.35
2018-05-26T19:02:10.134Z,98037.00
2018-05-26T19:07:09.994Z,98043.38
2018-05-26T19:09:42.140Z,98043.30
2018-05-26T19:12:11.027Z,98055.71
2018-05-26T19:14:40.594Z,98060.31
2018-05-26T19:17:09.044Z,98056.55
2018-05-26T19:19:37.611Z,98061.89
2018-05-26T19:22:05.190Z,98064.28
2018-05-26T19:24:33.036Z,98064.25
2018-05-26T19:27:01.127Z,98063.41
2018-05-26T19:29:28.640Z,98066.52
2018-05-26T19:31:56.107Z,98078.48
2018-05-26T19:34:24.818Z,98075.06
2018-05-26T19:36:52.577Z,98079.06
2018-05-26T19:39:20.487Z,98085.77
2018-05-26T19:41:48.506Z,98087.45
2018-05-26T19:44:17.418Z,98090.61
2018-05-26T19:46:52.770Z,98089.86
2018-05-26T19:58:15.568Z,98096.34
2018-05-26T20:03:36.211Z,98101.31
2018-05-26T20:08:57.431Z,98103.77
2018-05-26T20:26:30.702Z,98084.61
2018-05-26T20:32:21.550Z,98082.14
2018-05-26T20:40:44.319Z,98072.05
2018-05-26T20:43:11.867Z,98075.05
2018-05-26T20:48:22.534Z,98073.64
2018-05-26T20:51:10.249Z,98079.08
2018-05-26T20:53:44.582Z,98079.38
2018-05-26T20:56:14.590Z,98089.33
2018-05-26T20:58:43.334Z,98086.91
2018-05-26T21:09:56.107Z,98086.48
2018-05-26T21:17:17.047Z,98083.23
2018-05-26T21:19:45.221Z,98081.03
2018-05-26T21:22:12.820Z,98081.11
2018-05-26T21:24:40.294Z,98082.20
2018-05-26T21:27:19.912Z,98080.53
2018-05-26T21:29:49.246Z,98077.13
2018-05-26T21:32:16.754Z,98084.28
2018-05-26T21:34:44.795Z,98088.38
2018-05-26T21:37:12.261Z,98091.98
2018-05-26T21:39:40.766Z,98088.19
2018-05-26T21:42:08.879Z,98086.73
2018-05-26T21:44:36.457Z,98090.41
2018-05-26T21:47:05.282Z,98075.91
2018-05-26T21:49:32.821Z,98085.16
2018-05-26T21:52:00.333Z,98084.69
2018-05-26T21:54:27.836Z,98078.05
2018-05-26T21:56:55.380Z,98085.27
2018-05-26T21:59:23.364Z,98082.73
2018-05-26T22:01:50.882Z,98090.70
2018-05-26T22:04:18.683Z,98095.34
2018-05-26T22:06:46.144Z,98095.87
2018-05-26T22:09:13.633Z,98096.09
2018-05-26T22:11:41.472Z,98094.71
2018-05-26T22:14:10.061Z,98097.05
2018-05-26T22:16:37.615Z,98103.55
2018-05-26T22:19:05.398Z,98104.37
2018-05-26T22:21:32.875Z,98111.94
2018-05-26T22:24:00.432Z,98114.45
2018-05-26T22:26:27.914Z,98118.16
2018-05-26T22:28:55.412Z,98122.26
2018-05-26T22:31:23.005Z,98124.83
2018-05-26T22:33:51.352Z,98127.45
2018-05-26T22:36:18.822Z,98127.80
2018-05-26T22:38:46.285Z,98134.07
2018-05-26T22:41:13.815Z,98125.86
2018-05-26T22:43:41.603Z,98130.77
2018-05-26T22:46:09.189Z,98132.17
2018-05-26T22:48:37.942Z,98129.50
2018-05-26T22:51:05.520Z,98121.20
2018-05-26T22:53:33.009Z,98125.56
2018-05-26T22:56:00.514Z,98126.17
2018-05-26T22:58:28.037Z,98126.51
2018-05-26T23:00:55.728Z,98126.64
2018-05-26T23:03:47.887Z,98125.97
2018-05-26T23:06:16.182Z,98123.24
2018-05-26T23:08:43.627Z,98119.84
2018-05-26T23:11:11.226Z,98120.94
2018-05-26T23:13:38.733Z,98115.77
2018-05-26T23:16:06.226Z,98104.38
2018-05-26T23:18:33.721Z,98105.41
2018-05-26T23:21:01.207Z,98100.65
2018-05-26T23:23:28.779Z,98094.50
2018-05-26T23:25:57.208Z,98094.17
2018-05-26T23:28:25.403Z,98089.63
2018-05-26T23:30:52.909Z,98083.63
2018-05-26T23:33:21.622Z,98077.30
2018-05-26T23:35:49.273Z,98076.61
2018-05-26T23:38:16.739Z,98068.80
2018-05-26T23:40:45.459Z,98069.60
2018-05-26T23:43:14.650Z,98062.72
2018-05-26T23:45:42.183Z,98063.34
2018-05-26T23:48:09.674Z,98059.98
2018-05-26T23:50:37.166Z,98052.64
2018-05-26T23:53:04.615Z,98053.84
2018-05-26T23:55:32.224Z,98050.42
2018-05-26T23:57:59.722Z,98048.11
